x

Halibut Bank (46146) Wave Buoy

6:00pm - Wed 9th Jul 2014 All times are PDT. -7 hours from GMT.

  • Sig Wave height 1.6ft
  • Peak Period 4s
  • Wind
    13mph, 16mph gusts
  • Sea Temp 64°f
  • Air Temp 64°f
  • Sea Pressure 1013.3mb
  • Halibut Bank
  • Halibut Bank

More Historic Weather Station data

Upgrade to MSW Pro to gain access to the past 30 days of data for over 8000 Wavebouys and Weather Stations around the globe.

Join Pro

Comparision Forecast

View Surf forecast
   
Wed 07/09 6:00pm 1.6ft 4s 13 16 mph 1013.3mb 64f 64f
5:00pm 1.3ft 3s 13 18 mph 1013.7mb 64f 64f
4:00pm 1.6ft 4s 18 20 mph 1014.1mb 64f 64f
3:00pm 1.6ft 4s 16 18 mph 1014.7mb 64f 63f
2:00pm 1.6ft 4s 13 18 mph 1015.2mb 64f 62f
1:00pm 1.6ft 4s 16 18 mph 1015.6mb 63f 62f
12:00pm 2.5ft 4s 16 20 mph 1016.1mb 62f 60f
11:00am 2.5ft 4s 16 18 mph 1016.3mb 62f 60f
10:00am 3ft 5s 20 22 mph 1016.5mb 62f 60f
9:00am 3ft 5s 16 18 mph 1016.6mb 63f 59f
8:00am 2.5ft 4s 18 22 mph 1016.4mb 63f 60f
7:00am 2.5ft 5s 18 22 mph 1016.4mb 63f 60f
6:00am 3ft 4s 20 25 mph 1016.1mb 62f 60f
5:00am 2.5ft 5s 22 25 mph 1015.3mb 63f 60f
4:00am 3ft 4s 22 27 mph 1015mb 63f 60f
3:00am 3ft 4s 20 25 mph 1014.8mb 63f 62f
2:00am 2.5ft 4s 25 29 mph 1014.4mb 64f 62f
1:00am 2.5ft 4s 22 29 mph 1014.4mb 64f 64f
12:00am 1.6ft 3s 22 27 mph 1014.5mb 65f 65f
Tue 07/08 11:00pm 1.3ft 3s 13 16 mph 1014.5mb 66f 65f
10:00pm 1ft 3s 20 22 mph 1014.1mb 66f 67f
9:00pm 0.7ft 3s 16 18 mph 1014mb 66f 67f
8:00pm 0.7ft 3s 13 16 mph 1014mb 67f 67f
7:00pm 0.7ft 3s 2 4 mph 1014.5mb 66f 67f
6:00pm 1ft 3s 11 13 mph 1014.5mb 66f 68f
5:00pm 0.7ft 2s 9 11 mph 1015mb 65f 66f
4:00pm 0.7ft 2s 9 11 mph 1015.6mb 67f 65f
3:00pm 0.7ft 3s 9 11 mph 1016.2mb 67f 65f
2:00pm 1ft 3s 11 13 mph 1016.8mb 67f 65f
1:00pm 1ft 3s 11 13 mph 1017.4mb 66f 64f
12:00pm 1.6ft 4s 13
mph
1017.9mb 65f 63f
11:00am 1.6ft 3s 13 16 mph 1018.4mb 65f 62f
10:00am 2ft 4s 16 18 mph 1018.5mb 65f 62f
9:00am 1.6ft 3s 16 18 mph 1018.4mb 64f 62f
8:00am 2ft 3s 16 18 mph 1018.2mb 64f 62f
7:00am 2ft 4s 18 20 mph 1018mb 65f 62f
6:00am 2.5ft 4s 18 22 mph 1018mb 65f 63f
5:00am 2.5ft 4s 20 25 mph 1017.8mb 65f 63f
4:00am 2ft 4s 18 20 mph 1017.6mb 66f 64f
3:00am 1.6ft 4s 18 22 mph 1017.2mb 66f 64f
2:00am 1.3ft 3s 18 20 mph 1017mb 66f 65f
1:00am 1ft 2s 18 22 mph 1016.8mb 66f 66f
12:00am 1ft 2s 16 18 mph 1016.5mb 66f 66f
Mon 07/07 11:00pm 0.7ft 2s 13 18 mph 1016.4mb 66f 67f
10:00pm 0.7ft 2s 13
mph
1016.4mb 66f 67f
9:00pm 1ft 3s 13 16 mph 1016.4mb 66f 68f
8:00pm 1ft 3s 13
mph
1016.5mb 66f 67f
7:00pm 1ft 2s 13 16 mph 1016.9mb 66f 67f
6:00pm 1ft 3s 13 16 mph 1017.2mb 66f 66f
5:00pm 1.3ft 3s 13 16 mph 1017.8mb 66f 66f
4:00pm 1.3ft 3s 16 18 mph 1018.4mb 66f 65f
3:00pm 1.6ft 3s 18 20 mph 1018.9mb 66f 65f
2:00pm 1.3ft 3s 16 18 mph 1019.5mb 66f 65f
1:00pm 1.3ft 3s 18 20 mph 1019.9mb 66f 64f
12:00pm 1.3ft 3s 16 18 mph 1020.7mb 65f 63f
11:00am 1ft 3s 16 18 mph 1021.1mb 65f 62f
10:00am 1ft 3s 13 18 mph 1021.3mb 64f 62f
9:00am 0.7ft 2s 11 13 mph 1021.5mb 64f 62f
8:00am 0.7ft 2s 13 16 mph 1021.6mb 64f 62f
7:00am 1ft 3s 11
mph
1021.6mb 64f 61f
6:00am 0.7ft 3s 11 16 mph 1021.3mb 64f 61f
5:00am 0.7ft 2s 13 16 mph 1021.1mb 64f 61f
4:00am 0.3ft 2s 11 13 mph 1021.1mb 64f 61f
3:00am 0.3ft 2s 9
mph
1021.2mb 64f 61f
2:00am 0.3ft 2s 7 9 mph 1021.2mb 63f 61f
1:00am 0.3ft 7s 9
mph
1021.2mb 64f 62f
12:00am 0.3ft 5s 7
mph
1021.4mb 64f 62f
Sun 07/06 11:00pm 0.3ft 6s 9
mph
1021.4mb 64f 63f
10:00pm 0.3ft 6s 2
mph
1021.5mb 64f 63f
9:00pm 0.3ft 6s 2
mph
1021.2mb 64f 63f
8:00pm 0.3ft 5s  -  mph 1021.4mb 66f 64f
7:00pm 0.7ft 5s  -  2 mph 1021.6mb 66f 64f
6:00pm 0.3ft 2s  -  2 mph 1021.7mb 66f 65f
5:00pm 0.7ft 2s 2
mph
1022mb 65f 64f
4:00pm 0.7ft 3s 4
mph
1022.3mb 64f 63f
3:00pm 0.7ft 2s 9
mph
1022.2mb 64f 63f
2:00pm 0.7ft 2s 9 11 mph 1022mb 63f 62f
1:00pm 0.3ft 2s 9 11 mph 1022mb 62f 60f
12:00pm 0.3ft 2s 9 11 mph 1022mb 62f 60f
11:00am 0.7ft 2s 9 11 mph 1021.6mb 63f 59f
10:00am 1ft 2s 11 13 mph 1021.2mb 64f 60f
9:00am 0.3ft 3s 16 18 mph 1020.8mb 64f 59f
8:00am 0.3ft 6s 11 13 mph 1021mb 63f 59f
7:00am  -  2s 4
mph
1021.1mb 63f 58f
6:00am 0.3ft 5s 4
mph
1021mb 63f 60f
5:00am 0.3ft 5s  -  2 mph 1020.1mb 63f 60f
4:00am 0.3ft 3s 2 4 mph 1019.9mb 63f 60f
3:00am 0.3ft 2s 9 11 mph 1020.2mb 64f 60f